Meteo Giornale » Osservazioni meteo Cile » Isla De Pascua
ore: 20:00 - Osservazioni Meteo Isla De Pascua
Lat. 27° 9' S Lon. 109° 25' W Alt. 51 metri s.l.m.
17 °C
Nuvoloso
Temp. 24 Ore
15 °C
20 °C
Ovest/Sud-Ovest
13 Km/h
Dew point 10 °C
Umidità 63 %
Visibilità 10 Km
Il sole sorge alle ore 07:31
Il sole tramonta alle ore 19:04
| Data e Ora | Cielo e Fenomeni | T °C | DP °C | Um. % | Pres. hPa | Vis. km | Vento km/h | |
|---|---|---|---|---|---|---|---|---|
| Oggi h: 20:00 | Nuvoloso | 17 | 10 | 63 | 1019 | 10 | O/SO 13 | |
| Oggi h: 19:00 | Molto Nuvoloso | 18 | 9 | 55 | 1018 | 10 | O/SO 14.8 | |
| Oggi h: 17:00 | Nuvoloso | 19 | 11 | 59 | 1018 | 10 | O 14.8 | |
| Oggi h: 16:00 | Nuvoloso | 19 | 11 | 59 | 1018 | 10 | O 14.8 | |
| Oggi h: 15:00 | Poco Nuvoloso | 19 | 12 | 63 | 1019 | 10 | SO 13 | |
| Oggi h: 14:00 | Poco Nuvoloso | 19 | 13 | 68 | 1019 | 10 | SO 18.5 | |
| Oggi h: 13:00 | Poco Nuvoloso | 20 | 9 | 49 | 1020 | 10 | O 18.5 | |
| Oggi h: 12:00 | Poco Nuvoloso | 20 | 9 | 49 | 1020 | 10 | O 14.8 | |
| Oggi h: 11:00 | Poco Nuvoloso | 19 | 10 | 55 | 1020 | 10 | SO 13 | |
| Oggi h: 10:00 | Poco Nuvoloso | 19 | 11 | 59 | 1020 | 10 | SO 11.1 | |
| Oggi h: 09:00 | Poco Nuvoloso | 16 | 12 | 77 | 1019 | 10 | N 5.5 | |
| Oggi h: 08:00 | Pioviggine | 15 | 12 | 82 | 1018 | 10 | S/SO 11.1 | |
| Oggi h: 07:00 | Molto Nuvoloso | 17 | 11 | 67 | 1018 | 10 | S/SO 13 | |
| Oggi h: 06:00 | Molto Nuvoloso | 17 | 11 | 67 | 1017 | 10 | S/SO 13 | |
| Oggi h: 05:00 | Nuvoloso | 17 | 10 | 63 | 1017 | 10 | S/SO 7.4 | |
| Oggi h: 04:00 | Poco Nuvoloso | 17 | 11 | 67 | 1017 | 10 | SO 13 | |
| Oggi h: 03:00 | Nuvoloso | 17 | 11 | 67 | 1017 | 10 | SO 16.7 | |
| Oggi h: 02:00 | Nuvoloso | 17 | 11 | 67 | 1017 | 10 | SO 11.1 | |
| Oggi h: 01:00 | Nuvoloso | 17 | 12 | 72 | 1018 | 10 | O/SO 14.8 | |
| Oggi h: 00:00 | Molto Nuvoloso | 18 | 10 | 59 | 1018 | 10 | O/SO 16.7 | |
| Ieri h: 23:00 | Nuvoloso | 18 | 12 | 67 | 1018 | 10 | O/SO 20.3 | |
| Ieri h: 22:00 | Molto Nuvoloso | 17 | 13 | 77 | 1017 | 10 | SO 18.5 | |
| Ieri h: 21:00 | Nuvoloso | 18 | 12 | 67 | 1017 | 10 | SO 18.5 | |



